Kansas City, Missouri
Traffic Map
Current Weather Conditions
Kansas City, Missouri
Broken Clouds
Broken Clouds
11°
Feels Like: 11°
Wind Chill: 11° Ceiling: 12000
Heat Index: 11° Visibility: 10mi
Dew Point: Wind: 14mph
Humidity: 66% Direction: 60° (ENE)
Pressure: 29.69in Gusts: 0mph
Raw Report DataKMKC 231354Z 06012KT 10SM BKN120 11/04 A2969 RMK AO2 SLP050 T01060044
Traffic Incident Summary
Active as of:
Severity:
Category:
InformationThere was an issue retrieving the traffic information for this location. Please try a different location or try again shortly.
Advertisements
Track Severe Weather on mobile